WZZ26Y EPGD-EGPD
Flight info
| Callsign | WZZ26Y |
|---|---|
| Flight time | 2h 4m |
| Altitude | 36000 |
| Route | DEXIR Y100 MALOX L621 LUSID DCT PETIL DCT REKNA DCT RIVOT DCT EPCAN |
| Aircraft | A321/M-SDE1E2E3FGIJ1J4RWXY/LB1 |
Departure
| Time | 2026-05-05 11:18 |
|---|---|
| Airport | Gdańsk Lech Wałęsa Airport (EPGD) |
Arrival
| Time | 2026-05-05 13:22 |
|---|---|
| Airport | Aberdeen International Airport (EGPD) |
| Time | Latitude | Longitude | Altitude | Speed | Heading |
|---|---|---|---|---|---|
| 2026-05-05 10:33 | 54.38157 | 18.46442 | 460 ft | 0 kts | 23° |
| 2026-05-05 11:11 | 54.38149 | 18.46436 | 459 ft | 3 kts | 23° |
| 2026-05-05 11:11 | 54.38128 | 18.46424 | 459 ft | 4 kts | 352° |
| 2026-05-05 11:11 | 54.38110 | 18.46443 | 457 ft | 4 kts | 298° |
| 2026-05-05 11:11 | 54.38104 | 18.46462 | 459 ft | 0 kts | 294° |
| 2026-05-05 11:14 | 54.38111 | 18.46434 | 456 ft | 6 kts | 294° |
| 2026-05-05 11:14 | 54.38129 | 18.46364 | 459 ft | 7 kts | 294° |
| 2026-05-05 11:14 | 54.38150 | 18.46280 | 459 ft | 8 kts | 293° |
| 2026-05-05 11:14 | 54.38174 | 18.46184 | 459 ft | 9 kts | 292° |
| 2026-05-05 11:15 | 54.38149 | 18.46097 | 459 ft | 9 kts | 206° |
| 2026-05-05 11:15 | 54.38099 | 18.46021 | 459 ft | 10 kts | 248° |
| 2026-05-05 11:15 | 54.38117 | 18.45895 | 456 ft | 13 kts | 294° |
| 2026-05-05 11:15 | 54.38147 | 18.45773 | 455 ft | 7 kts | 282° |
| 2026-05-05 11:16 | 54.38139 | 18.45683 | 455 ft | 8 kts | 247° |
| 2026-05-05 11:16 | 54.38093 | 18.45623 | 455 ft | 9 kts | 207° |
| 2026-05-05 11:16 | 54.38036 | 18.45591 | 455 ft | 8 kts | 172° |
| 2026-05-05 11:16 | 54.37998 | 18.45653 | 456 ft | 8 kts | 115° |
| 2026-05-05 11:17 | 54.37970 | 18.45764 | 456 ft | 21 kts | 113° |
| 2026-05-05 11:17 | 54.37815 | 18.46389 | 458 ft | 92 kts | 113° |
| 2026-05-05 11:17 | 54.37481 | 18.47753 | 469 ft | 152 kts | 111° |
| 2026-05-05 11:17 | 54.37028 | 18.49517 | 903 ft | 164 kts | 113° |
| 2026-05-05 11:18 | 54.36562 | 18.51309 | 1576 ft | 164 kts | 112° |
| 2026-05-05 11:18 | 54.36117 | 18.53120 | 2272 ft | 167 kts | 113° |
| 2026-05-05 11:18 | 54.35648 | 18.55027 | 2653 ft | 185 kts | 114° |
| 2026-05-05 11:18 | 54.35124 | 18.57155 | 2942 ft | 208 kts | 114° |
| 2026-05-05 11:19 | 54.34530 | 18.59563 | 3239 ft | 231 kts | 113° |
| 2026-05-05 11:19 | 54.33883 | 18.62178 | 3814 ft | 240 kts | 114° |
| 2026-05-05 11:19 | 54.33047 | 18.64651 | 4563 ft | 241 kts | 139° |
| 2026-05-05 11:19 | 54.31611 | 18.66121 | 4932 ft | 256 kts | 165° |
| 2026-05-05 11:20 | 54.29820 | 18.66368 | 5000 ft | 262 kts | 193° |
| 2026-05-05 11:20 | 54.28185 | 18.65084 | 5005 ft | 259 kts | 223° |
| 2026-05-05 11:20 | 54.27142 | 18.62608 | 5003 ft | 258 kts | 250° |
| 2026-05-05 11:20 | 54.26880 | 18.59586 | 5013 ft | 259 kts | 269° |
| 2026-05-05 11:21 | 54.26865 | 18.56484 | 5010 ft | 260 kts | 269° |
| 2026-05-05 11:21 | 54.26847 | 18.53379 | 5301 ft | 267 kts | 268° |
| 2026-05-05 11:21 | 54.26825 | 18.50218 | 6236 ft | 265 kts | 268° |
| 2026-05-05 11:21 | 54.26802 | 18.47047 | 7055 ft | 266 kts | 267° |
| 2026-05-05 11:22 | 54.26774 | 18.43863 | 7911 ft | 267 kts | 266° |
| 2026-05-05 11:22 | 54.26746 | 18.40674 | 8776 ft | 269 kts | 267° |
| 2026-05-05 11:22 | 54.26717 | 18.37458 | 9665 ft | 271 kts | 266° |
| 2026-05-05 11:22 | 54.26684 | 18.34233 | 10244 ft | 283 kts | 266° |
| 2026-05-05 11:23 | 54.26645 | 18.30721 | 10433 ft | 306 kts | 266° |
| 2026-05-05 11:23 | 54.26603 | 18.26968 | 10744 ft | 321 kts | 266° |
| 2026-05-05 11:23 | 54.26563 | 18.23105 | 11339 ft | 327 kts | 266° |
| 2026-05-05 11:23 | 54.26525 | 18.19192 | 12004 ft | 330 kts | 266° |
| 2026-05-05 11:24 | 54.26488 | 18.15261 | 12681 ft | 332 kts | 266° |
| 2026-05-05 11:24 | 54.26448 | 18.11294 | 13356 ft | 335 kts | 266° |
| 2026-05-05 11:24 | 54.26402 | 18.07290 | 14001 ft | 338 kts | 266° |
| 2026-05-05 11:24 | 54.26352 | 18.03295 | 14606 ft | 340 kts | 266° |
| 2026-05-05 11:25 | 54.26301 | 17.99236 | 15220 ft | 343 kts | 266° |
| 2026-05-05 11:25 | 54.26248 | 17.95147 | 15836 ft | 345 kts | 266° |
| 2026-05-05 11:25 | 54.26194 | 17.91021 | 16429 ft | 348 kts | 266° |
| 2026-05-05 11:25 | 54.26140 | 17.86872 | 17032 ft | 351 kts | 266° |
| 2026-05-05 11:26 | 54.26086 | 17.82674 | 17651 ft | 354 kts | 266° |
| 2026-05-05 11:26 | 54.26029 | 17.78448 | 18230 ft | 356 kts | 266° |
| 2026-05-05 11:26 | 54.25969 | 17.74195 | 18749 ft | 358 kts | 266° |
| 2026-05-05 11:26 | 54.25905 | 17.69929 | 19285 ft | 360 kts | 266° |
| 2026-05-05 11:27 | 54.25839 | 17.65622 | 19839 ft | 362 kts | 266° |
| 2026-05-05 11:27 | 54.25775 | 17.61356 | 20402 ft | 364 kts | 266° |
| 2026-05-05 11:27 | 54.25711 | 17.57019 | 20960 ft | 366 kts | 266° |
| 2026-05-05 11:27 | 54.25644 | 17.52663 | 21533 ft | 367 kts | 266° |
| 2026-05-05 11:28 | 54.25570 | 17.48280 | 22076 ft | 369 kts | 266° |
| 2026-05-05 11:28 | 54.25493 | 17.43872 | 22620 ft | 371 kts | 266° |
| 2026-05-05 11:28 | 54.25416 | 17.39438 | 23150 ft | 373 kts | 266° |
| 2026-05-05 11:28 | 54.25337 | 17.34992 | 23621 ft | 375 kts | 265° |
| 2026-05-05 11:29 | 54.25257 | 17.30566 | 24045 ft | 377 kts | 265° |
| 2026-05-05 11:29 | 54.25175 | 17.26058 | 24478 ft | 379 kts | 265° |
| 2026-05-05 11:29 | 54.25092 | 17.21531 | 24892 ft | 381 kts | 265° |
| 2026-05-05 11:29 | 54.25007 | 17.16988 | 25282 ft | 383 kts | 265° |
| 2026-05-05 11:30 | 54.24917 | 17.12409 | 25666 ft | 385 kts | 265° |
| 2026-05-05 11:30 | 54.24828 | 17.07882 | 26040 ft | 387 kts | 265° |
| 2026-05-05 11:30 | 54.24734 | 17.03264 | 26409 ft | 389 kts | 265° |
| 2026-05-05 11:30 | 54.24639 | 16.98622 | 26775 ft | 391 kts | 265° |
| 2026-05-05 11:31 | 54.24641 | 16.93957 | 27141 ft | 395 kts | 271° |
| 2026-05-05 11:31 | 54.25128 | 16.89295 | 27494 ft | 403 kts | 281° |
| 2026-05-05 11:31 | 54.26156 | 16.84785 | 27846 ft | 412 kts | 292° |
| 2026-05-05 11:31 | 54.27710 | 16.80602 | 28190 ft | 422 kts | 301° |
| 2026-05-05 11:32 | 54.29486 | 16.76578 | 28523 ft | 424 kts | 301° |
| 2026-05-05 11:32 | 54.31259 | 16.72540 | 28866 ft | 426 kts | 301° |
| 2026-05-05 11:32 | 54.33043 | 16.68462 | 29186 ft | 428 kts | 300° |
| 2026-05-05 11:32 | 54.34828 | 16.64368 | 29506 ft | 430 kts | 300° |
| 2026-05-05 11:33 | 54.36617 | 16.60243 | 29837 ft | 432 kts | 300° |
| 2026-05-05 11:33 | 54.38418 | 16.56078 | 30133 ft | 434 kts | 300° |
| 2026-05-05 11:33 | 54.40197 | 16.51962 | 30422 ft | 436 kts | 300° |
| 2026-05-05 11:33 | 54.42011 | 16.47771 | 30778 ft | 436 kts | 300° |
| 2026-05-05 11:34 | 54.43817 | 16.43596 | 31181 ft | 434 kts | 300° |
| 2026-05-05 11:34 | 54.45618 | 16.39424 | 31615 ft | 433 kts | 300° |
| 2026-05-05 11:34 | 54.47417 | 16.35252 | 32035 ft | 432 kts | 300° |
| 2026-05-05 11:34 | 54.49180 | 16.31153 | 32438 ft | 430 kts | 300° |
| 2026-05-05 11:35 | 54.50956 | 16.27011 | 32838 ft | 429 kts | 300° |
| 2026-05-05 11:35 | 54.52725 | 16.22877 | 33228 ft | 427 kts | 300° |
| 2026-05-05 11:35 | 54.54484 | 16.18754 | 33622 ft | 426 kts | 300° |
| 2026-05-05 11:35 | 54.56236 | 16.14647 | 34007 ft | 425 kts | 300° |
| 2026-05-05 11:36 | 54.57985 | 16.10544 | 34325 ft | 424 kts | 300° |
| 2026-05-05 11:36 | 54.59729 | 16.06449 | 34597 ft | 424 kts | 300° |
| 2026-05-05 11:36 | 54.61475 | 16.02341 | 34868 ft | 424 kts | 300° |
| 2026-05-05 11:36 | 54.63219 | 15.98230 | 35132 ft | 424 kts | 300° |
| 2026-05-05 11:37 | 54.64963 | 15.94114 | 35394 ft | 424 kts | 300° |
| 2026-05-05 11:37 | 54.66703 | 15.89991 | 35659 ft | 424 kts | 300° |
| 2026-05-05 11:37 | 54.68422 | 15.85905 | 35877 ft | 425 kts | 300° |
| 2026-05-05 11:38 | 54.71908 | 15.77616 | 35942 ft | 424 kts | 300° |
| 2026-05-05 11:38 | 54.75363 | 15.69344 | 35945 ft | 424 kts | 300° |
| 2026-05-05 11:39 | 54.78789 | 15.61054 | 35946 ft | 423 kts | 300° |
| 2026-05-05 11:39 | 54.82187 | 15.52774 | 35950 ft | 424 kts | 300° |
| 2026-05-05 11:40 | 54.85615 | 15.44433 | 35955 ft | 424 kts | 300° |
| 2026-05-05 11:40 | 54.89012 | 15.36115 | 35961 ft | 424 kts | 300° |
| 2026-05-05 11:41 | 54.91894 | 15.27282 | 35962 ft | 415 kts | 285° |
| 2026-05-05 11:41 | 54.93390 | 15.17648 | 35965 ft | 412 kts | 280° |
| 2026-05-05 11:42 | 54.94775 | 15.07960 | 35964 ft | 413 kts | 280° |
| 2026-05-05 11:42 | 54.96160 | 14.98263 | 35964 ft | 413 kts | 280° |
| 2026-05-05 11:43 | 54.97540 | 14.88559 | 35966 ft | 413 kts | 280° |
| 2026-05-05 11:43 | 54.98915 | 14.78839 | 35967 ft | 413 kts | 280° |
| 2026-05-05 11:44 | 55.00270 | 14.69102 | 35966 ft | 413 kts | 280° |
| 2026-05-05 11:44 | 55.01613 | 14.59396 | 35967 ft | 414 kts | 280° |
| 2026-05-05 11:45 | 55.02961 | 14.49615 | 35969 ft | 414 kts | 280° |
| 2026-05-05 11:45 | 55.04076 | 14.41496 | 35969 ft | 414 kts | 280° |
| 2026-05-05 11:46 | 55.05624 | 14.30123 | 35964 ft | 414 kts | 280° |
| 2026-05-05 11:46 | 55.06943 | 14.20332 | 35964 ft | 414 kts | 280° |
| 2026-05-05 11:47 | 55.08044 | 14.12158 | 35966 ft | 414 kts | 280° |
| 2026-05-05 11:47 | 55.09576 | 14.00762 | 35967 ft | 415 kts | 280° |
| 2026-05-05 11:48 | 55.11318 | 13.87643 | 35964 ft | 415 kts | 280° |
| 2026-05-05 11:48 | 55.12601 | 13.77822 | 35964 ft | 415 kts | 280° |
| 2026-05-05 11:49 | 55.13868 | 13.68051 | 35967 ft | 415 kts | 280° |
| 2026-05-05 11:49 | 55.15141 | 13.58222 | 35967 ft | 415 kts | 280° |
| 2026-05-05 11:50 | 55.16411 | 13.48384 | 35965 ft | 415 kts | 280° |
| 2026-05-05 11:50 | 55.17668 | 13.38543 | 35967 ft | 415 kts | 280° |
| 2026-05-05 11:51 | 55.18919 | 13.28680 | 35967 ft | 415 kts | 280° |
| 2026-05-05 11:51 | 55.20162 | 13.18825 | 35971 ft | 415 kts | 279° |
| 2026-05-05 11:52 | 55.21407 | 13.08920 | 35968 ft | 415 kts | 280° |
| 2026-05-05 11:52 | 55.22631 | 12.99065 | 35972 ft | 416 kts | 279° |
| 2026-05-05 11:53 | 55.23849 | 12.89160 | 35965 ft | 416 kts | 279° |
| 2026-05-05 11:53 | 55.25057 | 12.79240 | 35966 ft | 416 kts | 279° |
| 2026-05-05 11:54 | 55.26266 | 12.69317 | 35972 ft | 416 kts | 279° |
| 2026-05-05 11:54 | 55.27468 | 12.59377 | 35976 ft | 417 kts | 279° |
| 2026-05-05 11:55 | 55.28662 | 12.49430 | 35979 ft | 417 kts | 279° |
| 2026-05-05 11:55 | 55.29848 | 12.39479 | 35979 ft | 417 kts | 279° |
| 2026-05-05 11:56 | 55.31025 | 12.29495 | 35972 ft | 417 kts | 279° |
| 2026-05-05 11:56 | 55.32195 | 12.19508 | 35973 ft | 418 kts | 279° |
| 2026-05-05 11:57 | 55.33362 | 12.09520 | 35968 ft | 418 kts | 279° |
| 2026-05-05 11:57 | 55.34514 | 11.99510 | 35967 ft | 418 kts | 279° |
| 2026-05-05 11:58 | 55.35660 | 11.89500 | 35971 ft | 418 kts | 279° |
| 2026-05-05 11:58 | 55.36803 | 11.79486 | 35973 ft | 418 kts | 279° |
| 2026-05-05 11:59 | 55.37933 | 11.69465 | 35976 ft | 418 kts | 279° |
| 2026-05-05 11:59 | 55.39058 | 11.59439 | 35981 ft | 418 kts | 279° |
| 2026-05-05 12:00 | 55.40169 | 11.49414 | 35980 ft | 418 kts | 279° |
| 2026-05-05 12:00 | 55.41265 | 11.39444 | 35984 ft | 417 kts | 279° |
| 2026-05-05 12:01 | 55.42362 | 11.29408 | 35979 ft | 417 kts | 279° |
| 2026-05-05 12:01 | 55.43446 | 11.19380 | 35984 ft | 417 kts | 279° |
| 2026-05-05 12:02 | 55.44524 | 11.09347 | 35987 ft | 417 kts | 279° |
| 2026-05-05 12:02 | 55.45597 | 10.99319 | 35995 ft | 416 kts | 279° |
| 2026-05-05 12:03 | 55.46661 | 10.89268 | 35995 ft | 416 kts | 279° |
| 2026-05-05 12:03 | 55.47712 | 10.79223 | 35994 ft | 416 kts | 278° |
| 2026-05-05 12:04 | 55.48746 | 10.69243 | 35995 ft | 416 kts | 278° |
| 2026-05-05 12:04 | 55.49777 | 10.59218 | 35991 ft | 415 kts | 278° |
| 2026-05-05 12:05 | 55.50797 | 10.49240 | 35995 ft | 415 kts | 278° |
| 2026-05-05 12:05 | 55.51815 | 10.39222 | 35994 ft | 414 kts | 278° |
| 2026-05-05 12:06 | 55.52827 | 10.29167 | 35992 ft | 414 kts | 278° |
| 2026-05-05 12:06 | 55.53817 | 10.19215 | 35991 ft | 414 kts | 278° |
| 2026-05-05 12:07 | 55.54800 | 10.09207 | 35987 ft | 413 kts | 278° |
| 2026-05-05 12:07 | 55.55782 | 9.99196 | 35987 ft | 413 kts | 278° |
| 2026-05-05 12:08 | 55.56761 | 9.89214 | 35983 ft | 412 kts | 278° |
| 2026-05-05 12:08 | 55.57716 | 9.79278 | 35982 ft | 412 kts | 278° |
| 2026-05-05 12:09 | 55.58673 | 9.69284 | 35984 ft | 412 kts | 278° |
| 2026-05-05 12:09 | 55.59614 | 9.59306 | 35984 ft | 412 kts | 277° |
| 2026-05-05 12:10 | 55.60550 | 9.49322 | 35985 ft | 411 kts | 277° |
| 2026-05-05 12:10 | 55.61474 | 9.39327 | 35984 ft | 411 kts | 277° |
| 2026-05-05 12:11 | 55.62388 | 9.29356 | 35987 ft | 411 kts | 277° |
| 2026-05-05 12:11 | 55.63298 | 9.19374 | 35988 ft | 411 kts | 277° |
| 2026-05-05 12:12 | 55.64194 | 9.09390 | 35988 ft | 410 kts | 277° |
| 2026-05-05 12:12 | 55.65087 | 8.99403 | 35988 ft | 410 kts | 277° |
| 2026-05-05 12:13 | 55.65978 | 8.89417 | 35988 ft | 410 kts | 277° |
| 2026-05-05 12:13 | 55.66850 | 8.79501 | 35988 ft | 410 kts | 277° |
| 2026-05-05 12:14 | 55.67712 | 8.69501 | 35991 ft | 410 kts | 277° |
| 2026-05-05 12:14 | 55.68567 | 8.59516 | 35994 ft | 410 kts | 277° |
| 2026-05-05 12:15 | 55.69423 | 8.49527 | 35994 ft | 410 kts | 277° |
| 2026-05-05 12:15 | 55.70266 | 8.39544 | 35996 ft | 409 kts | 276° |
| 2026-05-05 12:16 | 55.71093 | 8.29557 | 35999 ft | 409 kts | 276° |
| 2026-05-05 12:16 | 55.71912 | 8.19572 | 36004 ft | 409 kts | 276° |
| 2026-05-05 12:17 | 55.72731 | 8.09593 | 36012 ft | 409 kts | 276° |
| 2026-05-05 12:17 | 55.73537 | 7.99602 | 36019 ft | 409 kts | 276° |
| 2026-05-05 12:18 | 55.74341 | 7.89623 | 36014 ft | 409 kts | 276° |
| 2026-05-05 12:18 | 55.75137 | 7.79625 | 36016 ft | 409 kts | 276° |
| 2026-05-05 12:19 | 55.75917 | 7.69633 | 36017 ft | 409 kts | 276° |
| 2026-05-05 12:19 | 55.76687 | 7.59703 | 36020 ft | 409 kts | 276° |
| 2026-05-05 12:20 | 55.77458 | 7.49719 | 36023 ft | 408 kts | 276° |
| 2026-05-05 12:20 | 55.78216 | 7.39692 | 36024 ft | 408 kts | 276° |
| 2026-05-05 12:21 | 55.78967 | 7.29687 | 36019 ft | 408 kts | 276° |
| 2026-05-05 12:21 | 55.79703 | 7.19682 | 36017 ft | 408 kts | 276° |
| 2026-05-05 12:22 | 55.80436 | 7.09667 | 36021 ft | 408 kts | 276° |
| 2026-05-05 12:22 | 55.81160 | 6.99725 | 36028 ft | 408 kts | 276° |
| 2026-05-05 12:23 | 55.81887 | 6.89647 | 36025 ft | 408 kts | 275° |
| 2026-05-05 12:23 | 55.82592 | 6.79692 | 36026 ft | 408 kts | 275° |
| 2026-05-05 12:24 | 55.83296 | 6.69664 | 36026 ft | 408 kts | 275° |
| 2026-05-05 12:24 | 55.83992 | 6.59654 | 36026 ft | 408 kts | 275° |
| 2026-05-05 12:25 | 55.84670 | 6.49628 | 36026 ft | 408 kts | 275° |
| 2026-05-05 12:25 | 55.85337 | 6.39609 | 36034 ft | 408 kts | 275° |
| 2026-05-05 12:26 | 55.86008 | 6.29576 | 36025 ft | 408 kts | 275° |
| 2026-05-05 12:26 | 55.86667 | 6.19560 | 36034 ft | 408 kts | 275° |
| 2026-05-05 12:27 | 55.87319 | 6.09519 | 36026 ft | 408 kts | 275° |
| 2026-05-05 12:27 | 55.87964 | 5.99474 | 36027 ft | 408 kts | 275° |
| 2026-05-05 12:28 | 55.88602 | 5.89426 | 36026 ft | 408 kts | 275° |
| 2026-05-05 12:28 | 55.89231 | 5.79383 | 36028 ft | 408 kts | 275° |
| 2026-05-05 12:29 | 55.89849 | 5.69395 | 36027 ft | 408 kts | 275° |
| 2026-05-05 12:29 | 55.90460 | 5.59346 | 36028 ft | 408 kts | 275° |
| 2026-05-05 12:30 | 55.91054 | 5.49290 | 36025 ft | 408 kts | 275° |
| 2026-05-05 12:30 | 55.91648 | 5.39231 | 36025 ft | 408 kts | 275° |
| 2026-05-05 12:31 | 55.92238 | 5.29163 | 36028 ft | 408 kts | 275° |
| 2026-05-05 12:31 | 55.92819 | 5.19097 | 36029 ft | 408 kts | 274° |
| 2026-05-05 12:32 | 55.93390 | 5.09014 | 36024 ft | 408 kts | 274° |
| 2026-05-05 12:32 | 55.94076 | 4.99016 | 36020 ft | 410 kts | 281° |
| 2026-05-05 12:33 | 55.95657 | 4.89225 | 36021 ft | 411 kts | 284° |
| 2026-05-05 12:33 | 55.97259 | 4.79423 | 36021 ft | 411 kts | 284° |
| 2026-05-05 12:34 | 55.98841 | 4.69615 | 36023 ft | 411 kts | 284° |
| 2026-05-05 12:34 | 56.00419 | 4.59810 | 36026 ft | 411 kts | 284° |
| 2026-05-05 12:35 | 56.01990 | 4.50014 | 36023 ft | 411 kts | 284° |
| 2026-05-05 12:35 | 56.03553 | 4.40182 | 36021 ft | 411 kts | 284° |
| 2026-05-05 12:36 | 56.05102 | 4.30356 | 36022 ft | 411 kts | 283° |
| 2026-05-05 12:36 | 56.06391 | 4.22175 | 36022 ft | 411 kts | 284° |
| 2026-05-05 12:37 | 56.07938 | 4.12344 | 36023 ft | 410 kts | 283° |
| 2026-05-05 12:37 | 56.09469 | 4.02490 | 36020 ft | 410 kts | 283° |
| 2026-05-05 12:38 | 56.10990 | 3.92647 | 36018 ft | 410 kts | 283° |
| 2026-05-05 12:38 | 56.12510 | 3.82799 | 36011 ft | 410 kts | 283° |
| 2026-05-05 12:39 | 56.14015 | 3.72959 | 36006 ft | 409 kts | 283° |
| 2026-05-05 12:39 | 56.15503 | 3.63112 | 36004 ft | 409 kts | 283° |
| 2026-05-05 12:40 | 56.16981 | 3.53259 | 35941 ft | 405 kts | 283° |
| 2026-05-05 12:40 | 56.17627 | 3.48454 | 35977 ft | 389 kts | 278° |
| 2026-05-05 12:40 | 56.18080 | 3.43763 | 35978 ft | 376 kts | 278° |
| 2026-05-05 12:41 | 56.18528 | 3.39157 | 35855 ft | 375 kts | 278° |
| 2026-05-05 12:41 | 56.18972 | 3.34562 | 35595 ft | 369 kts | 278° |
| 2026-05-05 12:41 | 56.19839 | 3.25501 | 35442 ft | 375 kts | 278° |
| 2026-05-05 12:42 | 56.20727 | 3.16039 | 35291 ft | 393 kts | 278° |
| 2026-05-05 12:42 | 56.21646 | 3.06201 | 35112 ft | 408 kts | 278° |
| 2026-05-05 12:43 | 56.22591 | 2.96121 | 34936 ft | 409 kts | 278° |
| 2026-05-05 12:43 | 56.23523 | 2.86073 | 34767 ft | 407 kts | 278° |
| 2026-05-05 12:44 | 56.24436 | 2.76062 | 34600 ft | 405 kts | 277° |
| 2026-05-05 12:44 | 56.25338 | 2.66086 | 34421 ft | 403 kts | 277° |
| 2026-05-05 12:45 | 56.26229 | 2.56147 | 34262 ft | 402 kts | 277° |
| 2026-05-05 12:45 | 56.27109 | 2.46252 | 34088 ft | 400 kts | 277° |
| 2026-05-05 12:46 | 56.27974 | 2.36389 | 33910 ft | 398 kts | 277° |
| 2026-05-05 12:46 | 56.28402 | 2.31466 | 33800 ft | 398 kts | 277° |
| 2026-05-05 12:46 | 56.28828 | 2.26556 | 33716 ft | 397 kts | 277° |
| 2026-05-05 12:47 | 56.29675 | 2.16741 | 33522 ft | 396 kts | 277° |
| 2026-05-05 12:47 | 56.30512 | 2.06952 | 33338 ft | 395 kts | 277° |
| 2026-05-05 12:48 | 56.31337 | 1.97176 | 33165 ft | 394 kts | 277° |
| 2026-05-05 12:48 | 56.31741 | 1.92306 | 33058 ft | 393 kts | 277° |
| 2026-05-05 12:48 | 56.32148 | 1.87425 | 32964 ft | 393 kts | 277° |
| 2026-05-05 12:49 | 56.32958 | 1.77693 | 32783 ft | 392 kts | 277° |
| 2026-05-05 12:49 | 56.33763 | 1.67996 | 32606 ft | 391 kts | 277° |
| 2026-05-05 12:50 | 56.34553 | 1.58304 | 32416 ft | 390 kts | 277° |
| 2026-05-05 12:50 | 56.35329 | 1.48644 | 32238 ft | 389 kts | 277° |
| 2026-05-05 12:51 | 56.36098 | 1.39004 | 32060 ft | 388 kts | 277° |
| 2026-05-05 12:51 | 56.36857 | 1.29375 | 31887 ft | 387 kts | 277° |
| 2026-05-05 12:52 | 56.37605 | 1.19778 | 31712 ft | 386 kts | 277° |
| 2026-05-05 12:52 | 56.38337 | 1.10259 | 31542 ft | 385 kts | 276° |
| 2026-05-05 12:53 | 56.39070 | 1.00687 | 31377 ft | 384 kts | 276° |
| 2026-05-05 12:53 | 56.39795 | 0.91135 | 31198 ft | 384 kts | 276° |
| 2026-05-05 12:54 | 56.40506 | 0.81602 | 31032 ft | 383 kts | 276° |
| 2026-05-05 12:54 | 56.41016 | 0.76882 | 30943 ft | 383 kts | 283° |
| 2026-05-05 12:55 | 56.42726 | 0.67745 | 30785 ft | 384 kts | 287° |
| 2026-05-05 12:55 | 56.44477 | 0.58647 | 30617 ft | 383 kts | 287° |
| 2026-05-05 12:56 | 56.46208 | 0.49562 | 30453 ft | 382 kts | 287° |
| 2026-05-05 12:56 | 56.47917 | 0.40491 | 30296 ft | 381 kts | 287° |
| 2026-05-05 12:57 | 56.49627 | 0.31437 | 30137 ft | 380 kts | 287° |
| 2026-05-05 12:57 | 56.51332 | 0.22407 | 29951 ft | 379 kts | 287° |
| 2026-05-05 12:57 | 56.52179 | 0.17892 | 29846 ft | 378 kts | 287° |
| 2026-05-05 12:58 | 56.53019 | 0.13386 | 29430 ft | 377 kts | 287° |
| 2026-05-05 12:58 | 56.53854 | 0.08907 | 28984 ft | 373 kts | 287° |
| 2026-05-05 12:58 | 56.54680 | 0.04462 | 28530 ft | 370 kts | 287° |
| 2026-05-05 12:58 | 56.55495 | 0.00059 | 28083 ft | 368 kts | 287° |
| 2026-05-05 12:59 | 56.56307 | -0.04324 | 27666 ft | 365 kts | 287° |
| 2026-05-05 12:59 | 56.57108 | -0.08671 | 27227 ft | 363 kts | 287° |
| 2026-05-05 12:59 | 56.57905 | -0.13000 | 26812 ft | 360 kts | 287° |
| 2026-05-05 13:00 | 56.59484 | -0.21574 | 25981 ft | 356 kts | 287° |
| 2026-05-05 13:00 | 56.60265 | -0.25821 | 25571 ft | 354 kts | 287° |
| 2026-05-05 13:01 | 56.62556 | -0.38395 | 24345 ft | 348 kts | 287° |
| 2026-05-05 13:01 | 56.63311 | -0.42560 | 23928 ft | 346 kts | 287° |
| 2026-05-05 13:01 | 56.64060 | -0.46710 | 23486 ft | 345 kts | 287° |
| 2026-05-05 13:01 | 56.64804 | -0.50836 | 23029 ft | 342 kts | 287° |
| 2026-05-05 13:02 | 56.65539 | -0.54923 | 22594 ft | 339 kts | 287° |
| 2026-05-05 13:02 | 56.66267 | -0.58972 | 22166 ft | 336 kts | 287° |
| 2026-05-05 13:02 | 56.66990 | -0.62994 | 21731 ft | 333 kts | 287° |
| 2026-05-05 13:02 | 56.67704 | -0.66977 | 21304 ft | 330 kts | 287° |
| 2026-05-05 13:03 | 56.68412 | -0.70938 | 20868 ft | 328 kts | 287° |
| 2026-05-05 13:03 | 56.69111 | -0.74875 | 20435 ft | 326 kts | 286° |
| 2026-05-05 13:03 | 56.69806 | -0.78794 | 20008 ft | 324 kts | 287° |
| 2026-05-05 13:03 | 56.70496 | -0.82688 | 19580 ft | 322 kts | 287° |
| 2026-05-05 13:04 | 56.71180 | -0.86559 | 19153 ft | 320 kts | 287° |
| 2026-05-05 13:04 | 56.71860 | -0.90411 | 18710 ft | 319 kts | 287° |
| 2026-05-05 13:04 | 56.72538 | -0.94246 | 18289 ft | 317 kts | 287° |
| 2026-05-05 13:04 | 56.73209 | -0.98050 | 17833 ft | 314 kts | 287° |
| 2026-05-05 13:05 | 56.73876 | -1.01830 | 17411 ft | 312 kts | 287° |
| 2026-05-05 13:05 | 56.74535 | -1.05581 | 17003 ft | 309 kts | 287° |
| 2026-05-05 13:05 | 56.75185 | -1.09287 | 16580 ft | 305 kts | 287° |
| 2026-05-05 13:05 | 56.75820 | -1.12914 | 16172 ft | 295 kts | 287° |
| 2026-05-05 13:06 | 56.76430 | -1.16424 | 15787 ft | 286 kts | 287° |
| 2026-05-05 13:06 | 56.77021 | -1.19830 | 15412 ft | 277 kts | 287° |
| 2026-05-05 13:06 | 56.77586 | -1.23088 | 15097 ft | 265 kts | 287° |
| 2026-05-05 13:06 | 56.78136 | -1.26270 | 14700 ft | 261 kts | 287° |
| 2026-05-05 13:07 | 56.78673 | -1.29392 | 14353 ft | 255 kts | 287° |
| 2026-05-05 13:07 | 56.79199 | -1.32455 | 14014 ft | 251 kts | 287° |
| 2026-05-05 13:07 | 56.79719 | -1.35473 | 13661 ft | 248 kts | 287° |
| 2026-05-05 13:07 | 56.80227 | -1.38418 | 13320 ft | 246 kts | 287° |
| 2026-05-05 13:08 | 56.80742 | -1.41411 | 13000 ft | 243 kts | 287° |
| 2026-05-05 13:08 | 56.81240 | -1.44309 | 12701 ft | 241 kts | 287° |
| 2026-05-05 13:08 | 56.81738 | -1.47218 | 12370 ft | 239 kts | 287° |
| 2026-05-05 13:08 | 56.82231 | -1.50102 | 12060 ft | 237 kts | 287° |
| 2026-05-05 13:09 | 56.82720 | -1.52965 | 11745 ft | 235 kts | 287° |
| 2026-05-05 13:09 | 56.83156 | -1.55825 | 11437 ft | 233 kts | 278° |
| 2026-05-05 13:09 | 56.82927 | -1.58715 | 11131 ft | 235 kts | 247° |
| 2026-05-05 13:09 | 56.81908 | -1.61056 | 10840 ft | 239 kts | 228° |
| 2026-05-05 13:10 | 56.80943 | -1.63439 | 10528 ft | 230 kts | 253° |
| 2026-05-05 13:10 | 56.80815 | -1.66264 | 10237 ft | 224 kts | 283° |
| 2026-05-05 13:10 | 56.81533 | -1.68758 | 9953 ft | 225 kts | 307° |
| 2026-05-05 13:10 | 56.82546 | -1.70922 | 9622 ft | 223 kts | 310° |
| 2026-05-05 13:11 | 56.83580 | -1.73037 | 9267 ft | 223 kts | 310° |
| 2026-05-05 13:11 | 56.84619 | -1.75160 | 8786 ft | 226 kts | 310° |
| 2026-05-05 13:11 | 56.85672 | -1.77327 | 8254 ft | 230 kts | 310° |
| 2026-05-05 13:11 | 56.86734 | -1.79541 | 7756 ft | 232 kts | 310° |
| 2026-05-05 13:12 | 56.87751 | -1.81687 | 7412 ft | 214 kts | 310° |
| 2026-05-05 13:12 | 56.88694 | -1.83688 | 6893 ft | 202 kts | 310° |
| 2026-05-05 13:12 | 56.89587 | -1.85604 | 6381 ft | 194 kts | 310° |
| 2026-05-05 13:12 | 56.90430 | -1.87455 | 5872 ft | 183 kts | 310° |
| 2026-05-05 13:13 | 56.91190 | -1.89200 | 5352 ft | 172 kts | 311° |
| 2026-05-05 13:13 | 56.91893 | -1.90907 | 4910 ft | 163 kts | 310° |
| 2026-05-05 13:13 | 56.92542 | -1.92547 | 4494 ft | 152 kts | 310° |
| 2026-05-05 13:13 | 56.93135 | -1.94087 | 4058 ft | 144 kts | 310° |
| 2026-05-05 13:14 | 56.93696 | -1.95567 | 3664 ft | 138 kts | 310° |
| 2026-05-05 13:14 | 56.94222 | -1.96989 | 3363 ft | 135 kts | 310° |
| 2026-05-05 13:14 | 56.94744 | -1.98425 | 3078 ft | 136 kts | 310° |
| 2026-05-05 13:14 | 56.95265 | -1.99875 | 2812 ft | 136 kts | 310° |
| 2026-05-05 13:15 | 56.95778 | -2.01320 | 2569 ft | 136 kts | 310° |
| 2026-05-05 13:15 | 56.96464 | -2.02395 | 2515 ft | 128 kts | 342° |
| 2026-05-05 13:15 | 56.97301 | -2.02996 | 2522 ft | 130 kts | 342° |
| 2026-05-05 13:15 | 56.98143 | -2.03614 | 2511 ft | 130 kts | 342° |
| 2026-05-05 13:16 | 56.98991 | -2.04233 | 2510 ft | 131 kts | 342° |
| 2026-05-05 13:16 | 56.99840 | -2.04853 | 2508 ft | 131 kts | 342° |
| 2026-05-05 13:16 | 57.00678 | -2.05464 | 2510 ft | 131 kts | 342° |
| 2026-05-05 13:16 | 57.01523 | -2.06081 | 2504 ft | 130 kts | 342° |
| 2026-05-05 13:17 | 57.02368 | -2.06698 | 2506 ft | 130 kts | 342° |
| 2026-05-05 13:17 | 57.03213 | -2.07315 | 2509 ft | 131 kts | 342° |
| 2026-05-05 13:17 | 57.04060 | -2.07933 | 2510 ft | 130 kts | 342° |
| 2026-05-05 13:17 | 57.04904 | -2.08551 | 2509 ft | 131 kts | 342° |
| 2026-05-05 13:18 | 57.05756 | -2.09173 | 2506 ft | 131 kts | 342° |
| 2026-05-05 13:18 | 57.06594 | -2.09787 | 2508 ft | 131 kts | 342° |
| 2026-05-05 13:18 | 57.07444 | -2.10408 | 2509 ft | 131 kts | 341° |
| 2026-05-05 13:18 | 57.08291 | -2.11029 | 2506 ft | 131 kts | 341° |
| 2026-05-05 13:19 | 57.09140 | -2.11651 | 2438 ft | 131 kts | 342° |
| 2026-05-05 13:19 | 57.09993 | -2.12276 | 2305 ft | 132 kts | 342° |
| 2026-05-05 13:19 | 57.10834 | -2.12893 | 2143 ft | 132 kts | 342° |
| 2026-05-05 13:19 | 57.11683 | -2.13516 | 1956 ft | 131 kts | 341° |
| 2026-05-05 13:20 | 57.12528 | -2.14136 | 1787 ft | 131 kts | 341° |
| 2026-05-05 13:20 | 57.13371 | -2.14755 | 1601 ft | 131 kts | 341° |
| 2026-05-05 13:20 | 57.14213 | -2.15374 | 1420 ft | 129 kts | 341° |
| 2026-05-05 13:20 | 57.15037 | -2.15980 | 1229 ft | 130 kts | 341° |
| 2026-05-05 13:21 | 57.15876 | -2.16597 | 1036 ft | 130 kts | 341° |
| 2026-05-05 13:21 | 57.16714 | -2.17214 | 846 ft | 129 kts | 341° |
| 2026-05-05 13:21 | 57.17555 | -2.17833 | 670 ft | 130 kts | 340° |
| 2026-05-05 13:21 | 57.18393 | -2.18451 | 501 ft | 128 kts | 341° |
| 2026-05-05 13:22 | 57.19220 | -2.19052 | 313 ft | 127 kts | 340° |
| 2026-05-05 13:22 | 57.19999 | -2.19611 | 250 ft | 95 kts | 338° |
| 2026-05-05 13:22 | 57.20331 | -2.19865 | 248 ft | 14 kts | 336° |
| 2026-05-05 13:22 | 57.20428 | -2.19942 | 250 ft | 18 kts | 337° |
| 2026-05-05 13:23 | 57.20518 | -2.20012 | 249 ft | 15 kts | 337° |
| 2026-05-05 13:23 | 57.20592 | -2.20092 | 249 ft | 10 kts | 296° |
| 2026-05-05 13:23 | 57.20557 | -2.20209 | 248 ft | 13 kts | 226° |
| 2026-05-05 13:23 | 57.20541 | -2.20240 | 247 ft | 0 kts | 226° |
| 2026-05-05 13:25 | 57.20538 | -2.20245 | 247 ft | 2 kts | 227° |
| 2026-05-05 13:25 | 57.20519 | -2.20283 | 247 ft | 7 kts | 227° |
| 2026-05-05 13:25 | 57.20495 | -2.20329 | 247 ft | 8 kts | 226° |
| 2026-05-05 13:25 | 57.20449 | -2.20393 | 247 ft | 9 kts | 194° |
| 2026-05-05 13:26 | 57.20383 | -2.20360 | 247 ft | 11 kts | 159° |
| 2026-05-05 13:26 | 57.20310 | -2.20305 | 247 ft | 12 kts | 156° |
| 2026-05-05 13:26 | 57.20226 | -2.20243 | 247 ft | 14 kts | 158° |
| 2026-05-05 13:26 | 57.20143 | -2.20182 | 247 ft | 11 kts | 158° |
| 2026-05-05 13:27 | 57.20100 | -2.20157 | 247 ft | 3 kts | 188° |
| 2026-05-05 13:27 | 57.20080 | -2.20190 | 247 ft | 5 kts | 232° |
| 2026-05-05 13:27 | 57.20069 | -2.20237 | 247 ft | 0 kts | 251° |